createdAt,value
2022-07-28T00:01:04.957Z,1.25
2022-07-28T00:04:26.976Z,1.45
2022-07-28T00:07:50.152Z,1.52
2022-07-28T00:11:12.003Z,1.85
2022-07-28T00:14:33.813Z,1.35
2022-07-28T00:17:55.643Z,1.45
2022-07-28T00:21:17.554Z,1.40
2022-07-28T00:24:40.682Z,1.60
2022-07-28T00:28:02.496Z,1.33
2022-07-28T00:31:24.394Z,1.85
2022-07-28T00:34:46.335Z,2.90
2022-07-28T00:38:08.230Z,1.85
2022-07-28T00:41:34.666Z,1.65
2022-07-28T00:44:56.557Z,1.83
2022-07-28T00:48:18.377Z,1.50
2022-07-28T00:51:40.554Z,1.63
2022-07-28T00:55:04.595Z,1.50
2022-07-28T00:58:27.972Z,1.65
2022-07-28T01:01:53.217Z,1.63
2022-07-28T01:08:47.767Z,1.77
2022-07-28T01:12:18.459Z,2.17
2022-07-28T01:15:48.474Z,2.00
2022-07-28T01:19:20.291Z,2.22
2022-07-28T01:23:01.790Z,1.63
2022-07-28T01:26:42.818Z,2.25
2022-07-28T01:30:21.302Z,1.95
2022-07-28T01:33:54.912Z,1.67
2022-07-28T01:37:19.882Z,1.55
2022-07-28T01:40:45.028Z,1.88
2022-07-28T01:44:12.077Z,2.05
2022-07-28T01:47:36.351Z,2.03
2022-07-28T01:50:58.433Z,2.10
2022-07-28T01:54:21.044Z,1.75
2022-07-28T01:57:43.937Z,1.40
2022-07-28T02:01:07.095Z,1.75
2022-07-28T02:04:33.234Z,2.25
2022-07-28T02:07:56.309Z,1.65
2022-07-28T02:11:18.366Z,1.80
2022-07-28T02:14:42.071Z,1.83
2022-07-28T02:18:05.714Z,2.10
2022-07-28T02:21:31.228Z,1.67
2022-07-28T02:24:53.940Z,1.52
2022-07-28T02:28:21.196Z,1.95
2022-07-28T02:31:49.192Z,1.92
2022-07-28T02:35:22.252Z,1.48
2022-07-28T02:38:49.213Z,1.75
2022-07-28T02:42:17.410Z,1.60
2022-07-28T02:45:44.489Z,1.92
2022-07-28T02:49:10.653Z,2.22
2022-07-28T02:52:33.779Z,2.40
2022-07-28T02:55:58.322Z,1.52
2022-07-28T02:59:21.295Z,1.60
2022-07-28T03:02:43.781Z,1.38
2022-07-28T03:06:05.683Z,1.90
2022-07-28T03:09:28.020Z,1.50
2022-07-28T03:12:51.736Z,1.90
2022-07-28T03:16:13.564Z,2.20
2022-07-28T03:19:35.513Z,1.98
2022-07-28T03:22:57.635Z,1.92
2022-07-28T03:26:25.513Z,1.77
2022-07-28T03:29:54.874Z,2.10
2022-07-28T03:33:18.265Z,1.75
2022-07-28T03:36:44.027Z,2.22
2022-07-28T03:40:09.973Z,1.65
2022-07-28T03:43:33.462Z,2.30
2022-07-28T03:46:56.644Z,1.88
2022-07-28T03:50:21.884Z,1.80
2022-07-28T03:53:44.344Z,2.20
2022-07-28T03:57:06.651Z,1.50
2022-07-28T04:00:28.619Z,2.22
2022-07-28T04:03:51.884Z,2.35
2022-07-28T04:07:13.691Z,1.45
2022-07-28T04:10:35.873Z,1.60
2022-07-28T04:13:57.744Z,2.30
2022-07-28T04:17:19.554Z,1.90
2022-07-28T04:20:42.744Z,1.80
2022-07-28T04:24:05.645Z,1.58
2022-07-28T04:27:27.506Z,2.15
2022-07-28T04:30:49.393Z,2.03
2022-07-28T04:34:11.653Z,1.80
2022-07-28T04:37:35.040Z,2.00
2022-07-28T04:40:57.031Z,2.28
2022-07-28T04:44:18.842Z,2.00
2022-07-28T04:47:40.731Z,2.17
2022-07-28T04:51:02.565Z,1.70
2022-07-28T04:54:26.877Z,1.70
2022-07-28T04:57:48.845Z,2.15
2022-07-28T05:01:10.685Z,2.47
2022-07-28T05:04:32.903Z,2.15
2022-07-28T05:07:56.658Z,2.42
2022-07-28T05:11:19.820Z,2.25
2022-07-28T05:14:41.603Z,2.35
2022-07-28T05:18:03.638Z,2.72
2022-07-28T05:21:25.433Z,2.58
2022-07-28T05:24:47.300Z,2.97
2022-07-28T05:28:10.573Z,2.30
2022-07-28T05:31:32.443Z,1.70
2022-07-28T05:34:54.780Z,2.25
2022-07-28T05:38:17.044Z,1.67
2022-07-28T05:41:38.897Z,2.17
2022-07-28T05:45:03.103Z,1.67
2022-07-28T05:48:37.424Z,2.78
2022-07-28T05:52:00.676Z,2.38
2022-07-28T05:55:22.488Z,2.20
2022-07-28T05:58:44.337Z,3.50
2022-07-28T06:02:10.357Z,1.60
2022-07-28T06:05:32.714Z,2.10
2022-07-28T06:08:54.504Z,2.47
2022-07-28T06:12:16.305Z,1.95
2022-07-28T06:15:38.204Z,2.05
2022-07-28T06:19:01.363Z,2.42
2022-07-28T06:22:26.540Z,1.98
2022-07-28T06:25:49.090Z,2.55
2022-07-28T06:29:10.921Z,2.35
2022-07-28T06:32:32.928Z,2.20
2022-07-28T06:35:57.011Z,2.65
2022-07-28T06:39:18.802Z,2.90
2022-07-28T06:42:41.580Z,3.38
2022-07-28T06:46:03.647Z,2.63
2022-07-28T06:49:25.451Z,2.60
2022-07-28T06:52:48.721Z,2.92
2022-07-28T06:56:13.778Z,2.70
2022-07-28T06:59:37.426Z,3.50
2022-07-28T07:03:00.924Z,2.58
2022-07-28T07:06:23.097Z,2.93
2022-07-28T07:09:46.249Z,2.75
2022-07-28T07:13:08.074Z,3.38
2022-07-28T07:16:30.001Z,3.25
2022-07-28T07:19:53.349Z,2.70
2022-07-28T07:23:15.764Z,3.08
2022-07-28T07:26:39.155Z,3.50
2022-07-28T07:30:02.288Z,2.78
2022-07-28T07:33:26.663Z,2.97
2022-07-28T07:40:10.591Z,3.33
2022-07-28T07:43:33.828Z,3.38
2022-07-28T07:46:55.728Z,3.60
2022-07-28T07:50:17.547Z,3.63
2022-07-28T07:53:39.377Z,3.58
2022-07-28T07:57:01.270Z,3.70
2022-07-28T08:00:29.246Z,4.13
2022-07-28T08:03:53.729Z,3.55
2022-07-28T08:07:15.836Z,3.47
2022-07-28T08:10:39.266Z,4.20
2022-07-28T08:14:02.141Z,3.85
2022-07-28T08:17:26.404Z,3.90
2022-07-28T08:20:48.406Z,3.90
2022-07-28T08:24:10.926Z,3.13
2022-07-28T08:27:39.707Z,3.72
2022-07-28T08:31:01.736Z,3.65
2022-07-28T08:34:31.260Z,3.53
2022-07-28T08:37:55.330Z,3.42
2022-07-28T08:41:22.608Z,3.50
2022-07-28T08:44:51.293Z,4.25
2022-07-28T08:48:14.052Z,4.00
2022-07-28T08:51:38.099Z,3.88
2022-07-28T08:55:02.871Z,3.53
2022-07-28T08:58:24.825Z,3.70
2022-07-28T09:01:48.075Z,3.72
2022-07-28T09:05:10.389Z,3.33
2022-07-28T09:08:33.786Z,3.75
2022-07-28T09:11:55.602Z,3.97
2022-07-28T09:15:17.434Z,3.33
2022-07-28T09:18:39.231Z,3.25
2022-07-28T09:22:01.053Z,3.33
2022-07-28T09:25:25.196Z,3.85
2022-07-28T09:28:49.334Z,3.90
2022-07-28T09:32:17.134Z,3.85
2022-07-28T09:35:43.502Z,3.45
2022-07-28T09:39:06.928Z,4.00
2022-07-28T09:42:46.783Z,3.85
2022-07-28T09:46:10.439Z,3.50
2022-07-28T09:49:43.069Z,3.27
2022-07-28T09:53:27.323Z,3.88
2022-07-28T09:56:50.125Z,3.45
2022-07-28T10:00:25.631Z,3.83
2022-07-28T10:03:51.980Z,3.47
2022-07-28T10:07:14.486Z,3.50
2022-07-28T10:10:36.565Z,3.30
2022-07-28T10:14:03.433Z,3.35
2022-07-28T10:17:28.818Z,2.85
2022-07-28T10:20:50.761Z,2.80
2022-07-28T10:24:20.477Z,2.28
2022-07-28T10:27:45.929Z,3.03
2022-07-28T10:31:13.419Z,3.30
2022-07-28T10:34:43.244Z,3.33
2022-07-28T10:38:12.959Z,3.20
2022-07-28T10:41:45.507Z,3.15
2022-07-28T10:45:09.773Z,3.00
2022-07-28T10:48:32.140Z,4.20
2022-07-28T10:52:08.631Z,3.28
2022-07-28T10:55:48.769Z,3.67
2022-07-28T10:59:22.277Z,3.13
2022-07-28T11:02:52.631Z,2.80
2022-07-28T11:06:29.112Z,3.22
2022-07-28T11:09:52.332Z,3.05
2022-07-28T11:13:29.017Z,3.17
2022-07-28T11:17:11.499Z,2.72
2022-07-28T11:21:04.892Z,2.65
2022-07-28T11:25:18.444Z,2.97
2022-07-28T11:29:14.714Z,2.92
2022-07-28T11:32:56.414Z,2.90
2022-07-28T11:36:18.211Z,2.45
2022-07-28T11:39:43.880Z,2.47
2022-07-28T11:43:37.287Z,2.55
2022-07-28T11:47:16.835Z,2.42
2022-07-28T11:50:38.738Z,2.88
2022-07-28T11:54:02.801Z,2.92
2022-07-28T11:57:26.696Z,2.45
2022-07-28T12:00:48.522Z,2.35
2022-07-28T12:04:13.442Z,2.72
2022-07-28T12:07:38.309Z,3.30
2022-07-28T12:11:00.132Z,3.50
2022-07-28T12:14:22.516Z,2.85
2022-07-28T12:17:44.491Z,2.50
2022-07-28T12:21:07.675Z,2.45
2022-07-28T12:24:32.246Z,2.50
2022-07-28T12:28:17.171Z,2.97
2022-07-28T12:31:52.543Z,2.75
2022-07-28T12:35:16.283Z,3.40
2022-07-28T12:38:39.552Z,2.40
2022-07-28T12:42:03.401Z,2.40
2022-07-28T12:45:25.514Z,2.47
2022-07-28T12:48:48.509Z,2.50
2022-07-28T12:52:18.829Z,2.15
2022-07-28T12:55:45.443Z,2.90
2022-07-28T12:59:08.969Z,2.60
2022-07-28T13:02:36.141Z,2.80
2022-07-28T13:06:08.735Z,2.78
2022-07-28T13:09:33.029Z,2.92
2022-07-28T13:13:04.150Z,2.20
2022-07-28T13:16:28.043Z,2.60
2022-07-28T13:19:50.405Z,2.63
2022-07-28T13:23:12.236Z,3.20
2022-07-28T13:26:34.092Z,2.70
2022-07-28T13:29:57.294Z,2.22
2022-07-28T13:33:19.273Z,2.30
2022-07-28T13:36:43.169Z,2.47
2022-07-28T13:40:06.350Z,2.80
2022-07-28T13:43:35.989Z,2.70
2022-07-28T13:47:01.577Z,3.00
2022-07-28T13:57:15.686Z,2.50
2022-07-28T14:00:38.852Z,2.80
2022-07-28T14:04:02.395Z,2.58
2022-07-28T14:07:24.233Z,2.70
2022-07-28T14:10:48.187Z,2.45
2022-07-28T14:14:11.564Z,2.78
2022-07-28T14:17:44.820Z,2.92
2022-07-28T14:21:08.652Z,3.20
2022-07-28T14:24:30.677Z,3.13
2022-07-28T14:27:53.540Z,2.92
2022-07-28T14:31:15.526Z,2.63
2022-07-28T14:34:37.417Z,2.53
2022-07-28T14:41:45.218Z,2.72
2022-07-28T14:45:08.263Z,2.40
2022-07-28T14:48:30.075Z,2.85
2022-07-28T14:51:51.927Z,3.17
2022-07-28T14:55:15.109Z,2.22
2022-07-28T14:58:37.162Z,2.47
2022-07-28T15:02:00.144Z,3.03
2022-07-28T15:05:23.216Z,2.72
2022-07-28T15:08:45.186Z,2.55
2022-07-28T15:12:08.974Z,2.72
2022-07-28T15:15:30.846Z,2.92
2022-07-28T15:18:53.131Z,3.00
2022-07-28T15:22:15.006Z,3.10
2022-07-28T15:25:36.839Z,2.97
2022-07-28T15:29:00.233Z,2.40
2022-07-28T15:32:28.317Z,2.92
2022-07-28T15:35:58.706Z,2.65
2022-07-28T15:39:21.406Z,3.13
2022-07-28T15:42:43.200Z,2.80
2022-07-28T15:46:09.650Z,2.65
2022-07-28T15:49:31.552Z,2.78
2022-07-28T15:52:53.451Z,2.97
2022-07-28T15:56:15.270Z,2.72
2022-07-28T15:59:49.922Z,3.05
2022-07-28T16:03:14.213Z,2.63
2022-07-28T16:06:36.342Z,3.33
2022-07-28T16:09:58.603Z,2.97
2022-07-28T16:13:32.184Z,3.22
2022-07-28T16:16:59.145Z,2.28
2022-07-28T16:20:22.796Z,2.60
2022-07-28T16:23:44.626Z,2.97
2022-07-28T16:27:06.487Z,2.92
2022-07-28T16:30:28.300Z,2.58
2022-07-28T16:33:50.151Z,2.95
2022-07-28T16:37:18.963Z,2.72
2022-07-28T16:40:41.343Z,2.67
2022-07-28T16:44:03.615Z,2.88
2022-07-28T16:47:25.485Z,3.08
2022-07-28T16:50:47.473Z,2.72
2022-07-28T16:54:10.650Z,2.70
2022-07-28T16:57:32.496Z,2.88
2022-07-28T17:00:54.395Z,2.45
2022-07-28T17:04:18.805Z,2.83
2022-07-28T17:07:45.243Z,2.53
2022-07-28T17:11:08.971Z,2.85
2022-07-28T17:14:33.429Z,3.38
2022-07-28T17:17:55.509Z,1.95
2022-07-28T17:21:17.403Z,2.50
2022-07-28T17:24:39.312Z,2.38
2022-07-28T17:28:03.178Z,2.63
2022-07-28T17:31:26.092Z,2.15
2022-07-28T17:34:49.675Z,2.30
2022-07-28T17:38:11.837Z,2.25
2022-07-28T17:41:34.134Z,2.55
2022-07-28T17:44:57.361Z,2.28
2022-07-28T17:48:19.297Z,2.38
2022-07-28T17:51:41.274Z,2.78
2022-07-28T17:55:03.574Z,2.10
2022-07-28T17:58:28.047Z,2.50
2022-07-28T18:01:51.631Z,2.80
2022-07-28T18:05:13.531Z,2.60
2022-07-28T18:08:35.403Z,2.55
2022-07-28T18:11:58.898Z,2.53
2022-07-28T18:15:20.931Z,3.38
2022-07-28T18:18:44.114Z,3.20
2022-07-28T18:22:07.367Z,2.42
2022-07-28T18:25:29.238Z,2.35
2022-07-28T18:28:51.111Z,2.38
2022-07-28T18:32:12.972Z,3.08
2022-07-28T18:35:37.118Z,2.78
2022-07-28T18:38:59.818Z,2.97
2022-07-28T18:42:30.461Z,2.67
2022-07-28T18:45:54.397Z,2.20
2022-07-28T18:49:16.407Z,2.47
2022-07-28T18:52:40.288Z,2.50
2022-07-28T18:56:02.146Z,2.65
2022-07-28T18:59:24.126Z,2.60
2022-07-28T19:02:47.345Z,2.85
2022-07-28T19:06:10.571Z,2.85
2022-07-28T19:09:36.841Z,3.00
2022-07-28T19:12:59.121Z,2.80
2022-07-28T19:16:25.034Z,2.15
2022-07-28T19:19:47.758Z,2.28
2022-07-28T19:23:09.576Z,2.30
2022-07-28T19:26:32.921Z,2.70
2022-07-28T19:29:55.980Z,2.30
2022-07-28T19:33:19.278Z,2.60
2022-07-28T19:36:41.387Z,2.75
2022-07-28T19:40:03.636Z,2.58
2022-07-28T19:43:26.870Z,2.10
2022-07-28T19:46:48.732Z,3.08
2022-07-28T19:50:10.795Z,3.38
2022-07-28T19:53:34.499Z,3.05
2022-07-28T19:56:58.452Z,2.55
2022-07-28T20:00:23.045Z,2.70
2022-07-28T20:04:00.725Z,3.35
2022-07-28T20:07:26.151Z,2.10
2022-07-28T20:10:48.243Z,2.53
2022-07-28T20:14:11.130Z,2.53
2022-07-28T20:17:39.381Z,3.13
2022-07-28T20:21:01.769Z,3.40
2022-07-28T20:24:24.241Z,3.15
2022-07-28T20:27:46.212Z,3.63
2022-07-28T20:31:08.976Z,4.85
2022-07-28T20:34:34.634Z,4.60
2022-07-28T20:38:00.526Z,4.65
2022-07-28T20:41:22.383Z,6.05
2022-07-28T20:44:44.323Z,6.72
2022-07-28T20:48:06.356Z,6.60
2022-07-28T20:51:29.511Z,4.28
2022-07-28T20:54:54.554Z,5.97
2022-07-28T20:58:17.169Z,6.88
2022-07-28T21:01:43.532Z,6.13
2022-07-28T21:05:07.276Z,6.93
2022-07-28T21:08:30.564Z,6.57
2022-07-28T21:11:53.029Z,6.45
2022-07-28T21:15:16.257Z,7.53
2022-07-28T21:18:38.292Z,8.13
2022-07-28T21:22:00.284Z,6.25
2022-07-28T21:25:23.440Z,4.63
2022-07-28T21:28:45.478Z,5.68
2022-07-28T21:32:07.537Z,6.25
2022-07-28T21:35:29.469Z,5.63
2022-07-28T21:38:51.477Z,6.43
2022-07-28T21:42:14.759Z,6.78
2022-07-28T21:45:36.678Z,7.15
2022-07-28T21:48:59.638Z,7.43
2022-07-28T21:52:21.518Z,8.43
2022-07-28T21:55:46.896Z,8.50
2022-07-28T21:59:10.169Z,9.88
2022-07-28T22:02:31.965Z,9.63
2022-07-28T22:05:54.692Z,9.57
2022-07-28T22:09:16.586Z,10.15
2022-07-28T22:12:38.377Z,8.82
2022-07-28T22:16:01.617Z,8.07
2022-07-28T22:19:23.505Z,8.77
2022-07-28T22:22:45.358Z,8.18
2022-07-28T22:26:07.397Z,8.40
2022-07-28T22:29:31.140Z,6.78
2022-07-28T22:32:54.451Z,7.18
2022-07-28T22:36:16.260Z,7.25
2022-07-28T22:39:38.468Z,8.07
2022-07-28T22:43:00.275Z,9.40
2022-07-28T22:46:22.114Z,9.48
2022-07-28T22:49:45.306Z,10.15
2022-07-28T22:53:07.220Z,9.57
2022-07-28T22:56:34.876Z,9.98
2022-07-28T22:59:59.360Z,8.80
2022-07-28T23:03:21.236Z,9.85
2022-07-28T23:06:44.533Z,8.02
2022-07-28T23:10:07.599Z,9.00
2022-07-28T23:13:29.386Z,9.45
2022-07-28T23:16:51.205Z,9.05
2022-07-28T23:20:13.318Z,9.23
2022-07-28T23:23:37.064Z,7.72
2022-07-28T23:26:58.885Z,8.52
2022-07-28T23:30:20.697Z,8.88
2022-07-28T23:33:55.798Z,8.25
2022-07-28T23:37:19.193Z,9.40
2022-07-28T23:40:42.334Z,8.02
2022-07-28T23:44:04.431Z,8.45
2022-07-28T23:47:26.307Z,8.20
2022-07-28T23:50:48.099Z,8.80
2022-07-28T23:54:09.957Z,8.98
2022-07-28T23:57:33.502Z,8.68
